createdAt,value
2023-05-10T00:02:21.950Z,10.86
2023-05-10T00:04:51.905Z,10.80
2023-05-10T00:07:19.106Z,10.76
2023-05-10T00:09:46.156Z,10.72
2023-05-10T00:12:13.175Z,10.72
2023-05-10T00:14:40.518Z,10.71
2023-05-10T00:17:08.885Z,10.69
2023-05-10T00:19:36.003Z,10.66
2023-05-10T00:22:02.986Z,10.61
2023-05-10T00:24:30.320Z,10.59
2023-05-10T00:26:57.308Z,10.59
2023-05-10T00:29:25.076Z,10.59
2023-05-10T00:31:54.657Z,10.57
2023-05-10T00:34:23.159Z,10.56
2023-05-10T00:36:51.085Z,10.56
2023-05-10T00:39:18.383Z,10.54
2023-05-10T00:41:45.431Z,10.54
2023-05-10T00:44:12.840Z,10.52
2023-05-10T00:46:39.905Z,10.53
2023-05-10T00:49:07.448Z,10.53
2023-05-10T00:51:36.205Z,10.51
2023-05-10T00:54:03.865Z,10.49
2023-05-10T00:56:31.155Z,10.48
2023-05-10T00:58:58.232Z,10.45
2023-05-10T01:01:26.245Z,10.39
2023-05-10T01:03:54.096Z,10.35
2023-05-10T01:06:21.879Z,10.33
2023-05-10T01:08:50.840Z,10.29
2023-05-10T01:11:18.278Z,10.26
2023-05-10T01:13:52.000Z,10.19
2023-05-10T01:16:19.157Z,10.13
2023-05-10T01:18:46.456Z,10.05
2023-05-10T01:21:22.263Z,9.95
2023-05-10T01:24:22.749Z,9.85
2023-05-10T01:27:18.719Z,9.83
2023-05-10T01:30:15.904Z,9.81
2023-05-10T01:32:55.283Z,9.73
2023-05-10T01:35:30.355Z,9.67
2023-05-10T01:38:05.005Z,9.65
2023-05-10T01:40:36.277Z,9.64
2023-05-10T01:43:05.389Z,9.61
2023-05-10T01:45:38.306Z,9.58
2023-05-10T01:48:08.527Z,9.57
2023-05-10T01:50:37.597Z,9.56
2023-05-10T01:53:09.059Z,9.53
2023-05-10T01:55:44.004Z,9.48
2023-05-10T01:58:16.523Z,9.48
2023-05-10T02:00:45.610Z,9.50
2023-05-10T02:03:16.312Z,9.48
2023-05-10T02:05:46.072Z,9.47
2023-05-10T02:08:15.637Z,9.45
2023-05-10T02:10:43.958Z,9.44
2023-05-10T02:13:12.565Z,9.43
2023-05-10T02:15:42.483Z,9.40
2023-05-10T02:18:11.844Z,9.36
2023-05-10T02:20:40.880Z,9.34
2023-05-10T02:23:09.676Z,9.34
2023-05-10T02:25:38.473Z,9.30
2023-05-10T02:28:07.412Z,9.29
2023-05-10T02:30:37.217Z,9.26
2023-05-10T02:33:06.251Z,9.22
2023-05-10T02:35:34.554Z,9.16
2023-05-10T02:38:05.771Z,9.15
2023-05-10T02:40:34.789Z,9.14
2023-05-10T02:43:03.956Z,9.10
2023-05-10T02:45:33.589Z,9.06
2023-05-10T02:48:01.394Z,9.06
2023-05-10T02:50:31.232Z,9.02
2023-05-10T02:53:05.085Z,8.99
2023-05-10T02:55:36.521Z,8.97
2023-05-10T02:58:04.286Z,8.97
2023-05-10T03:00:31.965Z,8.94
2023-05-10T03:02:59.101Z,8.86
2023-05-10T03:05:27.105Z,8.77
2023-05-10T03:07:55.362Z,8.58
2023-05-10T03:10:28.764Z,8.56
2023-05-10T03:13:06.997Z,8.57
2023-05-10T03:15:43.460Z,8.62
2023-05-10T03:18:13.999Z,8.53
2023-05-10T03:20:44.362Z,8.39
2023-05-10T03:23:21.107Z,8.37
2023-05-10T03:25:53.765Z,8.43
2023-05-10T03:28:22.835Z,8.46
2023-05-10T03:30:51.199Z,8.45
2023-05-10T03:33:18.148Z,8.47
2023-05-10T03:35:47.149Z,8.50
2023-05-10T03:38:15.100Z,8.52
2023-05-10T03:40:42.122Z,8.55
2023-05-10T03:43:10.922Z,8.56
2023-05-10T03:45:37.819Z,8.55
2023-05-10T03:48:06.293Z,8.54
2023-05-10T03:50:33.337Z,8.53
2023-05-10T03:53:00.340Z,8.58
2023-05-10T03:55:29.233Z,8.67
2023-05-10T03:57:57.099Z,8.78
2023-05-10T04:00:27.757Z,8.85
2023-05-10T04:02:56.138Z,8.90
2023-05-10T04:05:23.831Z,8.94
2023-05-10T04:07:52.715Z,9.03
2023-05-10T04:10:20.017Z,9.15
2023-05-10T04:12:47.057Z,9.22
2023-05-10T04:15:14.425Z,9.31
2023-05-10T04:17:42.806Z,9.32
2023-05-10T04:20:11.617Z,9.36
2023-05-10T04:22:38.948Z,9.51
2023-05-10T04:25:07.273Z,9.68
2023-05-10T04:27:36.840Z,9.86
2023-05-10T04:30:04.376Z,10.07
2023-05-10T04:32:32.472Z,10.25
2023-05-10T04:35:00.838Z,10.38
2023-05-10T04:37:27.786Z,10.56
2023-05-10T04:39:54.833Z,10.74
2023-05-10T04:42:21.765Z,10.92
2023-05-10T04:44:53.084Z,11.06
2023-05-10T04:47:20.062Z,11.24
2023-05-10T04:49:47.098Z,11.44
2023-05-10T04:52:17.184Z,11.63
2023-05-10T04:54:44.192Z,11.66
2023-05-10T04:57:11.098Z,11.73
2023-05-10T04:59:38.678Z,11.82
2023-05-10T05:02:09.240Z,12.00
2023-05-10T05:04:36.397Z,12.06
2023-05-10T05:07:03.379Z,12.22
2023-05-10T05:09:33.030Z,12.36
2023-05-10T05:12:00.441Z,12.53
2023-05-10T05:14:27.629Z,12.73
2023-05-10T05:16:54.771Z,12.91
2023-05-10T05:19:21.871Z,13.05
2023-05-10T05:21:48.894Z,13.28
2023-05-10T05:24:15.892Z,13.50
2023-05-10T05:26:44.602Z,13.71
2023-05-10T05:29:11.781Z,13.90
2023-05-10T05:31:38.718Z,14.10
2023-05-10T05:34:05.911Z,14.20
2023-05-10T05:36:32.928Z,14.23
2023-05-10T05:38:59.890Z,14.37
2023-05-10T05:41:27.016Z,14.62
2023-05-10T05:43:55.511Z,14.78
2023-05-10T05:46:22.614Z,14.87
2023-05-10T05:48:49.859Z,14.95
2023-05-10T05:51:16.804Z,15.09
2023-05-10T05:53:43.906Z,15.30
2023-05-10T05:56:10.875Z,15.29
2023-05-10T05:58:37.882Z,15.37
2023-05-10T06:01:06.315Z,15.62
2023-05-10T06:03:36.897Z,15.67
2023-05-10T06:06:05.296Z,15.64
2023-05-10T06:08:32.276Z,15.58
2023-05-10T06:10:59.227Z,15.45
2023-05-10T06:13:26.284Z,15.64
2023-05-10T06:15:53.234Z,15.70
2023-05-10T06:18:21.648Z,15.74
2023-05-10T06:20:50.274Z,15.55
2023-05-10T06:23:17.359Z,15.45
2023-05-10T06:25:47.029Z,15.51
2023-05-10T06:28:14.053Z,15.40
2023-05-10T06:30:40.999Z,15.51
2023-05-10T06:33:08.055Z,15.70
2023-05-10T06:35:38.118Z,15.82
2023-05-10T06:38:05.091Z,15.90
2023-05-10T06:40:32.102Z,16.04
2023-05-10T06:42:59.017Z,16.19
2023-05-10T06:45:26.205Z,16.38
2023-05-10T06:47:53.353Z,16.40
2023-05-10T06:50:22.714Z,16.35
2023-05-10T06:52:52.973Z,16.17
2023-05-10T06:55:20.415Z,16.12
2023-05-10T06:57:48.340Z,16.02
2023-05-10T07:00:16.520Z,16.21
2023-05-10T07:02:46.759Z,16.51
2023-05-10T07:05:14.422Z,16.71
2023-05-10T07:07:41.604Z,16.87
2023-05-10T07:10:10.907Z,17.00
2023-05-10T07:12:37.873Z,17.13
2023-05-10T07:15:06.157Z,17.35
2023-05-10T07:17:34.454Z,17.55
2023-05-10T07:20:01.516Z,17.31
2023-05-10T07:22:29.066Z,17.21
2023-05-10T07:24:56.132Z,17.26
2023-05-10T07:27:24.456Z,17.01
2023-05-10T07:29:51.643Z,17.09
2023-05-10T07:32:18.758Z,17.22
2023-05-10T07:34:45.705Z,17.46
2023-05-10T07:37:12.851Z,17.60
2023-05-10T07:39:39.830Z,17.62
2023-05-10T07:42:06.828Z,17.39
2023-05-10T07:44:35.232Z,17.48
2023-05-10T07:47:02.202Z,17.42
2023-05-10T07:49:29.371Z,17.51
2023-05-10T07:51:56.603Z,17.50
2023-05-10T07:54:23.722Z,17.66
2023-05-10T07:56:51.303Z,17.83
2023-05-10T07:59:18.774Z,17.79
2023-05-10T08:01:47.180Z,17.61
2023-05-10T08:04:14.327Z,17.60
2023-05-10T08:06:41.768Z,17.48
2023-05-10T08:09:09.684Z,17.28
2023-05-10T08:11:36.672Z,17.04
2023-05-10T08:14:03.744Z,17.20
2023-05-10T08:16:30.829Z,17.05
2023-05-10T08:18:59.465Z,17.11
2023-05-10T08:21:27.174Z,17.27
2023-05-10T08:23:54.376Z,17.17
2023-05-10T08:26:22.481Z,16.74
2023-05-10T08:28:49.605Z,16.87
2023-05-10T08:31:17.015Z,17.30
2023-05-10T08:33:44.790Z,17.65
2023-05-10T08:36:15.312Z,18.04
2023-05-10T08:38:42.370Z,17.81
2023-05-10T08:41:09.981Z,17.57
2023-05-10T08:43:37.701Z,17.11
2023-05-10T08:46:08.015Z,16.94
2023-05-10T08:48:38.845Z,16.97
2023-05-10T08:51:06.741Z,17.48
2023-05-10T08:53:38.305Z,17.70
2023-05-10T08:56:06.435Z,17.43
2023-05-10T08:58:37.740Z,17.33
2023-05-10T09:01:05.974Z,17.68
2023-05-10T09:03:33.537Z,17.93
2023-05-10T09:06:03.160Z,17.92
2023-05-10T09:08:31.789Z,18.11
2023-05-10T09:11:02.214Z,18.15
2023-05-10T09:13:29.782Z,18.59
2023-05-10T09:15:58.839Z,18.87
2023-05-10T09:18:29.350Z,19.02
2023-05-10T09:20:56.436Z,18.40
2023-05-10T09:23:24.304Z,18.47
2023-05-10T09:26:05.643Z,18.79
2023-05-10T09:28:33.548Z,18.79
2023-05-10T09:31:00.678Z,19.02
2023-05-10T09:33:28.370Z,19.53
2023-05-10T09:35:55.349Z,19.97
2023-05-10T09:38:22.291Z,19.87
2023-05-10T09:40:55.428Z,19.79
2023-05-10T09:43:23.848Z,19.91
2023-05-10T09:45:51.394Z,20.17
2023-05-10T09:48:18.354Z,20.31
2023-05-10T09:50:45.382Z,20.34
2023-05-10T09:53:16.787Z,20.08
2023-05-10T09:55:45.947Z,19.98
2023-05-10T09:58:13.639Z,20.30
2023-05-10T10:00:43.678Z,20.85
2023-05-10T10:03:17.201Z,21.14
2023-05-10T10:05:45.464Z,21.03
2023-05-10T10:08:13.482Z,20.66
2023-05-10T10:10:47.603Z,19.95
2023-05-10T10:13:15.070Z,19.86
2023-05-10T10:15:45.210Z,19.56
2023-05-10T10:18:15.509Z,19.66
2023-05-10T10:20:42.933Z,19.69
2023-05-10T10:23:10.778Z,19.73
2023-05-10T10:25:39.654Z,19.70
2023-05-10T10:28:27.554Z,19.87
2023-05-10T10:31:02.572Z,19.84
2023-05-10T10:33:46.259Z,19.49
2023-05-10T10:36:16.623Z,19.20
2023-05-10T10:39:00.798Z,19.51
2023-05-10T10:41:32.676Z,20.17
2023-05-10T10:44:25.688Z,20.02
2023-05-10T10:47:10.383Z,19.79
2023-05-10T10:49:49.328Z,19.29
2023-05-10T10:52:32.130Z,19.22
2023-05-10T10:55:03.725Z,19.74
2023-05-10T10:57:34.193Z,19.47
2023-05-10T11:00:25.216Z,19.69
2023-05-10T11:02:54.972Z,19.95
2023-05-10T11:05:46.661Z,20.46
2023-05-10T11:08:17.245Z,20.69
2023-05-10T11:11:08.059Z,20.56
2023-05-10T11:13:39.613Z,20.59
2023-05-10T11:16:14.901Z,20.60
2023-05-10T11:18:54.317Z,20.70
2023-05-10T11:21:21.657Z,20.66
2023-05-10T11:23:50.811Z,20.80
2023-05-10T11:26:19.262Z,20.61
2023-05-10T11:28:47.484Z,20.18
2023-05-10T11:31:15.830Z,20.56
2023-05-10T11:33:48.859Z,20.57
2023-05-10T11:36:17.590Z,20.20
2023-05-10T11:38:44.614Z,20.32
2023-05-10T11:41:12.710Z,20.42
2023-05-10T11:43:40.504Z,20.44
2023-05-10T11:46:08.416Z,20.76
2023-05-10T11:48:35.605Z,20.60
2023-05-10T11:51:04.121Z,20.23
2023-05-10T11:53:32.427Z,20.39
2023-05-10T11:56:06.085Z,20.73
2023-05-10T11:58:33.508Z,20.97
2023-05-10T12:01:01.006Z,21.01
2023-05-10T12:03:29.100Z,21.01
2023-05-10T12:05:57.013Z,20.80
2023-05-10T12:08:27.077Z,21.05
2023-05-10T12:11:04.661Z,21.39
2023-05-10T12:13:31.616Z,21.47
2023-05-10T12:15:59.149Z,21.57
2023-05-10T12:18:26.955Z,21.26
2023-05-10T12:20:57.565Z,20.60
2023-05-10T12:23:27.785Z,20.41
2023-05-10T12:25:55.049Z,20.84
2023-05-10T12:28:22.041Z,21.51
2023-05-10T12:30:49.444Z,21.89
2023-05-10T12:33:20.932Z,22.09
2023-05-10T12:35:49.624Z,21.88
2023-05-10T12:38:30.616Z,21.73
2023-05-10T12:40:58.805Z,21.43
2023-05-10T12:43:26.004Z,21.44
2023-05-10T12:45:52.978Z,21.41
2023-05-10T12:48:23.685Z,21.67
2023-05-10T12:50:50.943Z,21.68
2023-05-10T12:53:18.317Z,21.56
2023-05-10T12:55:46.687Z,21.06
2023-05-10T12:58:27.796Z,20.52
2023-05-10T13:01:01.634Z,20.38
2023-05-10T13:03:28.592Z,20.55
2023-05-10T13:05:55.524Z,21.04
2023-05-10T13:08:22.486Z,21.44
2023-05-10T13:10:51.147Z,20.94
2023-05-10T13:13:19.233Z,20.74
2023-05-10T13:15:46.232Z,20.66
2023-05-10T13:18:13.238Z,20.63
2023-05-10T13:20:40.241Z,20.85
2023-05-10T13:23:07.284Z,20.63
2023-05-10T13:25:35.400Z,20.53
2023-05-10T13:28:03.925Z,20.51
2023-05-10T13:30:31.197Z,20.65
2023-05-10T13:32:58.237Z,20.70
2023-05-10T13:35:25.449Z,20.56
2023-05-10T13:37:54.360Z,20.56
2023-05-10T13:40:21.386Z,20.75
2023-05-10T13:42:48.337Z,20.94
2023-05-10T13:45:17.303Z,21.07
2023-05-10T13:47:44.577Z,21.17
2023-05-10T13:50:11.603Z,21.54
2023-05-10T13:52:39.106Z,21.35
2023-05-10T13:55:06.728Z,21.24
2023-05-10T13:57:35.509Z,21.15
2023-05-10T14:00:03.031Z,21.09
2023-05-10T14:02:36.530Z,21.05
2023-05-10T14:05:04.167Z,21.21
2023-05-10T14:07:31.799Z,21.34
2023-05-10T14:09:58.712Z,20.97
2023-05-10T14:12:25.993Z,20.77
2023-05-10T14:14:53.406Z,20.75
2023-05-10T14:17:20.437Z,20.50
2023-05-10T14:19:48.767Z,20.34
2023-05-10T14:22:15.806Z,20.03
2023-05-10T14:24:44.418Z,19.81
2023-05-10T14:27:11.793Z,19.63
2023-05-10T14:29:38.732Z,19.42
2023-05-10T14:32:06.037Z,19.27
2023-05-10T14:34:33.249Z,19.20
2023-05-10T14:37:02.216Z,19.09
2023-05-10T14:39:30.837Z,19.00
2023-05-10T14:41:57.862Z,18.98
2023-05-10T14:44:24.857Z,18.87
2023-05-10T14:46:51.955Z,18.78
2023-05-10T14:49:18.885Z,18.54
2023-05-10T14:51:46.915Z,18.53
2023-05-10T14:54:15.409Z,18.41
2023-05-10T14:56:42.833Z,18.29
2023-05-10T14:59:09.817Z,18.16
2023-05-10T15:01:38.901Z,18.07
2023-05-10T15:04:06.334Z,17.99
2023-05-10T15:06:35.354Z,17.90
2023-05-10T15:09:02.753Z,17.80
2023-05-10T15:11:31.126Z,17.65
2023-05-10T15:13:58.325Z,17.58
2023-05-10T15:16:25.817Z,17.59
2023-05-10T15:18:52.961Z,17.56
2023-05-10T15:21:19.974Z,17.42
2023-05-10T15:23:47.114Z,17.41
2023-05-10T15:26:14.056Z,17.36
2023-05-10T15:28:42.429Z,17.33
2023-05-10T15:31:09.391Z,17.32
2023-05-10T15:33:37.915Z,17.30
2023-05-10T15:36:05.366Z,17.25
2023-05-10T15:38:32.572Z,17.15
2023-05-10T15:40:59.661Z,17.00
2023-05-10T15:43:26.654Z,16.89
2023-05-10T15:45:55.106Z,16.89
2023-05-10T15:48:22.052Z,16.76
2023-05-10T15:50:49.086Z,16.70
2023-05-10T15:53:16.033Z,16.66
2023-05-10T15:55:42.975Z,16.58
2023-05-10T15:58:10.032Z,16.56
2023-05-10T16:00:37.037Z,16.61
2023-05-10T16:03:05.553Z,16.52
2023-05-10T16:05:33.772Z,16.55
2023-05-10T16:08:01.738Z,16.53
2023-05-10T16:10:31.675Z,16.45
2023-05-10T16:12:59.020Z,16.42
2023-05-10T16:15:26.027Z,16.38
2023-05-10T16:17:53.197Z,16.36
2023-05-10T16:20:21.578Z,16.30
2023-05-10T16:22:48.531Z,16.26
2023-05-10T16:25:15.619Z,16.17
2023-05-10T16:27:43.279Z,16.19
2023-05-10T16:30:10.992Z,16.05
2023-05-10T16:32:38.149Z,15.99
2023-05-10T16:35:05.950Z,15.99
2023-05-10T16:37:34.239Z,16.00
2023-05-10T16:40:01.359Z,15.94
2023-05-10T16:42:28.594Z,15.85
2023-05-10T16:44:55.681Z,15.78
2023-05-10T16:47:24.743Z,15.69
2023-05-10T16:49:51.909Z,15.72
2023-05-10T16:52:18.982Z,15.64
2023-05-10T16:54:47.240Z,15.55
2023-05-10T16:57:14.202Z,15.50
2023-05-10T16:59:41.454Z,15.42
2023-05-10T17:02:08.481Z,15.37
2023-05-10T17:04:35.771Z,15.22
2023-05-10T17:07:02.750Z,15.18
2023-05-10T17:09:29.697Z,15.07
2023-05-10T17:11:58.035Z,15.01
2023-05-10T17:14:25.120Z,14.97
2023-05-10T17:16:55.158Z,14.83
2023-05-10T17:19:23.641Z,14.72
2023-05-10T17:21:52.524Z,14.58
2023-05-10T17:24:19.631Z,14.59
2023-05-10T17:26:46.642Z,14.56
2023-05-10T17:29:16.279Z,14.46
2023-05-10T17:31:43.275Z,14.43
2023-05-10T17:34:11.014Z,14.36
2023-05-10T17:36:38.012Z,14.28
2023-05-10T17:39:05.133Z,14.24
2023-05-10T17:41:32.126Z,14.19
2023-05-10T17:43:59.087Z,14.14
2023-05-10T17:46:27.384Z,14.08
2023-05-10T17:48:54.276Z,14.09
2023-05-10T17:51:21.309Z,13.99
2023-05-10T17:53:48.236Z,13.91
2023-05-10T17:56:15.180Z,13.86
2023-05-10T17:58:42.244Z,13.80
2023-05-10T18:01:09.231Z,13.76
2023-05-10T18:03:37.537Z,13.65
2023-05-10T18:06:05.280Z,13.57
2023-05-10T18:08:33.107Z,13.63
2023-05-10T18:11:00.191Z,13.56
2023-05-10T18:13:27.549Z,13.50
2023-05-10T18:15:54.588Z,13.40
2023-05-10T18:18:22.160Z,13.37
2023-05-10T18:20:56.448Z,13.26
2023-05-10T18:23:24.357Z,13.24
2023-05-10T18:25:51.809Z,13.11
2023-05-10T18:28:19.158Z,13.05
2023-05-10T18:30:46.221Z,12.98
2023-05-10T18:33:13.253Z,12.96
2023-05-10T18:35:40.388Z,12.98
2023-05-10T18:38:09.902Z,12.89
2023-05-10T18:40:37.187Z,12.89
2023-05-10T18:43:04.241Z,12.90
2023-05-10T18:45:31.602Z,12.86
2023-05-10T18:47:58.483Z,12.81
2023-05-10T18:50:25.412Z,12.80
2023-05-10T18:52:52.436Z,12.77
2023-05-10T18:55:20.855Z,12.76
2023-05-10T18:57:47.924Z,12.74
2023-05-10T19:00:15.218Z,12.75
2023-05-10T19:02:42.200Z,12.77
2023-05-10T19:05:09.934Z,12.73
2023-05-10T19:07:36.865Z,12.71
2023-05-10T19:10:04.204Z,12.73
2023-05-10T19:12:32.584Z,12.76
2023-05-10T19:14:59.482Z,12.69
2023-05-10T19:17:26.568Z,12.67
2023-05-10T19:19:56.508Z,12.68
2023-05-10T19:22:32.072Z,12.65
2023-05-10T19:25:11.659Z,12.67
2023-05-10T19:27:39.973Z,12.61
2023-05-10T19:30:08.414Z,12.57
2023-05-10T19:32:35.572Z,12.50
2023-05-10T19:35:02.667Z,12.46
2023-05-10T19:37:29.605Z,12.43
2023-05-10T19:39:56.648Z,12.33
2023-05-10T19:42:23.633Z,12.21
2023-05-10T19:44:51.934Z,12.03
2023-05-10T19:47:18.897Z,11.95
2023-05-10T19:49:45.852Z,11.84
2023-05-10T19:52:12.797Z,11.88
2023-05-10T19:54:39.815Z,11.84
2023-05-10T19:57:06.820Z,11.75
2023-05-10T19:59:33.808Z,11.59
2023-05-10T20:02:02.381Z,11.51
2023-05-10T20:04:29.648Z,11.47
2023-05-10T20:06:56.560Z,11.47
2023-05-10T20:09:23.600Z,11.32
2023-05-10T20:11:50.597Z,11.26
2023-05-10T20:14:18.215Z,11.16
2023-05-10T20:16:45.620Z,11.14
2023-05-10T20:19:14.342Z,11.15
2023-05-10T20:21:41.285Z,11.13
2023-05-10T20:24:08.988Z,11.09
2023-05-10T20:26:35.958Z,11.08
2023-05-10T20:29:02.950Z,11.03
2023-05-10T20:31:29.879Z,11.02
2023-05-10T20:33:56.789Z,11.08
2023-05-10T20:36:25.491Z,11.13
2023-05-10T20:38:52.425Z,11.13
2023-05-10T20:41:19.344Z,11.10
2023-05-10T20:43:46.603Z,11.16
2023-05-10T20:46:13.676Z,11.18
2023-05-10T20:48:40.588Z,11.18
2023-05-10T20:51:07.711Z,11.17
2023-05-10T20:53:36.039Z,11.21
2023-05-10T20:56:03.329Z,11.23
2023-05-10T20:58:30.692Z,11.28
2023-05-10T21:00:57.629Z,11.30
2023-05-10T21:03:24.719Z,11.27
2023-05-10T21:05:51.660Z,11.26
2023-05-10T21:08:18.596Z,11.19
2023-05-10T21:10:47.023Z,11.15
2023-05-10T21:13:14.006Z,11.10
2023-05-10T21:15:41.027Z,11.13
2023-05-10T21:18:08.079Z,11.13
2023-05-10T21:20:35.028Z,11.10
2023-05-10T21:23:01.965Z,11.07
2023-05-10T21:25:28.941Z,11.07
2023-05-10T21:27:57.824Z,10.99
2023-05-10T21:30:25.060Z,10.95
2023-05-10T21:32:52.069Z,10.90
2023-05-10T21:35:19.050Z,10.80
2023-05-10T21:37:46.061Z,10.70
2023-05-10T21:40:13.584Z,10.70
2023-05-10T21:42:40.523Z,10.69
2023-05-10T21:45:09.508Z,10.68
2023-05-10T21:47:36.417Z,10.67
2023-05-10T21:50:03.835Z,10.62
2023-05-10T21:52:30.754Z,10.58
2023-05-10T21:54:57.676Z,10.59
2023-05-10T21:57:25.105Z,10.59
2023-05-10T21:59:52.177Z,10.55
2023-05-10T22:02:20.666Z,10.48
2023-05-10T22:04:47.711Z,10.48
2023-05-10T22:07:16.585Z,10.49
2023-05-10T22:09:43.593Z,10.37
2023-05-10T22:12:10.712Z,10.31
2023-05-10T22:14:37.742Z,10.30
2023-05-10T22:17:04.749Z,10.32
2023-05-10T22:19:33.132Z,10.32
2023-05-10T22:22:00.074Z,10.26
2023-05-10T22:24:27.173Z,10.28
2023-05-10T22:26:55.265Z,10.31
2023-05-10T22:29:22.607Z,10.33
2023-05-10T22:31:49.602Z,10.37
2023-05-10T22:34:16.546Z,10.34
2023-05-10T22:36:44.875Z,10.31
2023-05-10T22:39:11.869Z,10.28
2023-05-10T22:41:38.789Z,10.26
2023-05-10T22:44:05.757Z,10.23
2023-05-10T22:46:33.075Z,10.14
2023-05-10T22:49:00.031Z,10.11
2023-05-10T22:51:27.201Z,10.07
2023-05-10T22:53:55.539Z,9.99
2023-05-10T22:56:22.733Z,9.95
2023-05-10T22:58:50.173Z,9.90
2023-05-10T23:01:17.346Z,9.87
2023-05-10T23:03:44.342Z,9.81
2023-05-10T23:06:11.446Z,9.81
2023-05-10T23:08:38.481Z,9.82
2023-05-10T23:11:06.810Z,9.76
2023-05-10T23:13:33.791Z,9.71
2023-05-10T23:16:05.253Z,9.70
2023-05-10T23:18:32.383Z,9.73
2023-05-10T23:20:59.442Z,9.71
2023-05-10T23:23:26.503Z,9.69
2023-05-10T23:25:53.526Z,9.68
2023-05-10T23:28:21.839Z,9.59
2023-05-10T23:30:55.650Z,9.44
2023-05-10T23:33:23.085Z,9.34
2023-05-10T23:35:50.120Z,9.39
2023-05-10T23:38:17.267Z,9.42
2023-05-10T23:40:48.043Z,9.45
2023-05-10T23:43:16.220Z,9.44
2023-05-10T23:45:52.883Z,9.44
2023-05-10T23:48:20.048Z,9.42
2023-05-10T23:50:47.109Z,9.41
2023-05-10T23:53:14.285Z,9.40
2023-05-10T23:55:41.446Z,9.41
2023-05-10T23:58:08.411Z,9.39
